Gurli — SLEG — position and weather

sailwx.info

Track history (hours):
 
Tides and Currents Weather Stations Pressure Air Temp Water Temp Dewpoint Dewpoint Depression Visibility Wind Speed Wind Dir Waves Ship Positions

Gurli

Last reported at 2016-Dec-05 10:18 UTC. Time now 2016-Dec-06 10:11 UTC.
Position N 59°21' E 018°16'.

Length 21 m.

Type: Passenger vessel. MMSI: 265687640.

Date/timePositionNaut miles runAvg speedWind from/ knotsBaromVisibWave heightAir tempDewpointWater temp
2016-Dec-05 10:18N 59°21' E 018°16'4 5.3
2016-Dec-05 09:33N 59°19' E 018°09'1 1.2
2016-Dec-05 08:33N 59°19' E 018°07'1 1.3
2016-Dec-05 07:33N 59°19' E 018°09'0 0.4
2016-Dec-05 06:33N 59°19' E 018°09'0 0.2
2016-Dec-05 05:33N 59°19' E 018°08'2 1.8
2016-Dec-05 04:33N 59°20' E 018°05'0 0.0
2016-Dec-05 03:33N 59°20' E 018°05'0 0.0
2016-Dec-05 02:33N 59°20' E 018°05'0 0.0
2016-Dec-05 01:33N 59°20' E 018°05'0 0.0
2016-Dec-05 00:33N 59°20' E 018°05'0 0.0
2016-Dec-04 23:33N 59°20' E 018°05'0 0.0
2016-Dec-04 22:33N 59°20' E 018°05'0 0.0
2016-Dec-04 21:33N 59°20' E 018°05'0 0.0
2016-Dec-04 20:33N 59°20' E 018°05'0 0.0
2016-Dec-04 19:33N 59°20' E 018°05'0 0.2
2016-Dec-04 18:31N 59°20' E 018°05'2 2.4
2016-Dec-04 17:33N 59°20' E 018°09'2 2.4
2016-Dec-04 16:33N 59°20' E 018°05'2 2.4
2016-Dec-04 15:32N 59°20' E 018°09'2 2.4
2016-Dec-04 14:33N 59°20' E 018°05'2 2.4
2016-Dec-04 13:33N 59°20' E 018°09'2 2.3
2016-Dec-04 12:32N 59°20' E 018°05'1 1.5
2016-Dec-04 11:33N 59°19' E 018°07'1 1.2
2016-Dec-04 10:33N 59°19' E 018°09'1 1.2
2016-Dec-04 09:33N 59°19' E 018°07'1 0.9
2016-Dec-04 08:33N 59°19' E 018°08'2 1.9
2016-Dec-04 07:33N 59°20' E 018°05'0 0.0
2016-Dec-04 06:33N 59°20' E 018°05'0 0.0
2016-Dec-04 05:33N 59°20' E 018°05'0 0.0
2016-Dec-04 04:33N 59°20' E 018°05'0 0.0
2016-Dec-04 03:33N 59°20' E 018°05'0 0.0
2016-Dec-04 02:33N 59°20' E 018°05'0 0.0
2016-Dec-04 01:33N 59°20' E 018°05'0 0.0
2016-Dec-04 00:33N 59°20' E 018°05'0 0.0
2016-Dec-03 23:30N 59°20' E 018°05'0 0.0
2016-Dec-03 22:33N 59°20' E 018°05'0 0.0
2016-Dec-03 21:30N 59°20' E 018°05'0 0.0
2016-Dec-03 20:33N 59°20' E 018°05'0 0.0
2016-Dec-03 19:33N 59°20' E 018°05'0 0.2
2016-Dec-03 18:32N 59°20' E 018°05'2 2.4
2016-Dec-03 17:32N 59°20' E 018°09'2 2.4
2016-Dec-03 16:33N 59°20' E 018°05'2 2.4
2016-Dec-03 15:33N 59°20' E 018°09'2 2.4
2016-Dec-03 14:33N 59°20' E 018°05'2 2.4
2016-Dec-03 13:33N 59°20' E 018°09'2 2.4
2016-Dec-03 12:33N 59°20' E 018°05'1 1.4
2016-Dec-03 11:33N 59°19' E 018°07'1 1.2
2016-Dec-03 10:33N 59°19' E 018°09'1 1.2
2016-Dec-03 09:33N 59°19' E 018°07'1 1.3
2016-Dec-03 08:33N 59°19' E 018°09'2 2.2
2016-Dec-03 07:32N 59°20' E 018°05'0 0.0
2016-Dec-03 06:32N 59°20' E 018°05'0 0.0
2016-Dec-03 05:32N 59°20' E 018°05'0 0.0
2016-Dec-03 04:32N 59°20' E 018°05'0 0.0
2016-Dec-03 03:32N 59°20' E 018°05'0 0.0
2016-Dec-03 02:32N 59°20' E 018°05'0 0.0
2016-Dec-03 01:29N 59°20' E 018°05'0 0.0
2016-Dec-03 00:32N 59°20' E 018°05'0 0.0
2016-Dec-02 23:32N 59°20' E 018°05'0 0.0
2016-Dec-02 22:32N 59°20' E 018°05'0 0.0
2016-Dec-02 21:32N 59°20' E 018°05'0 0.0
2016-Dec-02 20:32N 59°20' E 018°05'0 0.0
2016-Dec-02 19:32N 59°20' E 018°05'0 0.0
2016-Dec-02 18:32N 59°20' E 018°05'2 1.9
2016-Dec-02 17:33N 59°19' E 018°08'0 0.3
2016-Dec-02 16:33N 59°19' E 018°07'1 1.1
2016-Dec-02 15:33N 59°19' E 018°10'2 1.6
2016-Dec-02 14:33N 59°19' E 018°06'1 1.4
2016-Dec-02 13:33N 59°19' E 018°09'1 1.3
2016-Dec-02 12:33N 59°19' E 018°07'1 1.3
2016-Dec-02 11:33N 59°19' E 018°09'1 1.3
2016-Dec-02 10:34N 59°19' E 018°07'1 1.2
2016-Dec-02 09:33N 59°19' E 018°09'1 1.2
2016-Dec-02 08:33N 59°19' E 018°07'2 1.6
2016-Dec-02 07:33N 59°20' E 018°10'2 1.5
2016-Dec-02 06:33N 59°19' E 018°07'0 0.2
2016-Dec-02 05:33N 59°19' E 018°07'1 1.2
2016-Dec-02 04:31N 59°20' E 018°05'0 0.0
2016-Dec-02 03:31N 59°20' E 018°05'0 0.0
2016-Dec-02 02:31N 59°20' E 018°05'0 0.0
2016-Dec-02 01:31N 59°20' E 018°05'0 0.0
2016-Dec-02 00:31N 59°20' E 018°05'0 0.0
2016-Dec-01 23:31N 59°20' E 018°05'0 0.0
2016-Dec-01 22:31N 59°20' E 018°05'0 0.0
2016-Dec-01 21:31N 59°20' E 018°05'0 0.0
2016-Dec-01 20:31N 59°20' E 018°05'0 0.0
2016-Dec-01 19:31N 59°20' E 018°05'0 0.0
2016-Dec-01 18:31N 59°20' E 018°05'2 1.7
2016-Dec-01 17:33N 59°19' E 018°08'0 0.1
2016-Dec-01 16:33N 59°19' E 018°08'1 1.0
2016-Dec-01 15:32N 59°19' E 018°10'2 1.6
2016-Dec-01 14:33N 59°19' E 018°07'1 1.3
2016-Dec-01 13:33N 59°19' E 018°09'1 1.2
2016-Dec-01 12:33N 59°19' E 018°07'1 1.4
2016-Dec-01 11:32N 59°19' E 018°09'1 1.5
2016-Dec-01 10:33N 59°19' E 018°07'1 1.3
2016-Dec-01 09:33N 59°19' E 018°09'1 1.3
2016-Dec-01 08:33N 59°19' E 018°07'2 1.6
2016-Dec-01 07:32N 59°19' E 018°10'2 1.6
2016-Dec-01 06:33N 59°19' E 018°07'0 0.2
2016-Dec-01 05:33N 59°19' E 018°07'1 1.2
2016-Dec-01 04:33N 59°20' E 018°05'0 0.0
2016-Dec-01 03:33N 59°20' E 018°05'0 0.0
2016-Dec-01 02:33N 59°20' E 018°05'0 0.0
2016-Dec-01 01:33N 59°20' E 018°05'0 0.0
2016-Dec-01 00:33N 59°20' E 018°05'0 0.0
2016-Nov-30 23:33N 59°20' E 018°05'0 0.0
2016-Nov-30 22:33N 59°20' E 018°05'0 0.0
2016-Nov-30 21:33N 59°20' E 018°05'0 0.0
2016-Nov-30 20:33N 59°20' E 018°05'0 0.0
2016-Nov-30 19:33N 59°20' E 018°05'0 0.0
2016-Nov-30 18:33N 59°20' E 018°05'2 1.9
2016-Nov-30 17:33N 59°19' E 018°08'0 0.4
2016-Nov-30 16:33N 59°19' E 018°07'1 1.1
2016-Nov-30 15:33N 59°19' E 018°10'2 1.6
2016-Nov-30 14:33N 59°19' E 018°07'1 1.3
2016-Nov-30 13:34N 59°19' E 018°09'1 1.3
2016-Nov-30 12:34N 59°19' E 018°07'1 1.3
2016-Nov-30 11:33N 59°19' E 018°09'1 1.3
2016-Nov-30 10:33N 59°19' E 018°07'1 1.4
2016-Nov-30 09:33N 59°19' E 018°09'1 1.4
2016-Nov-30 08:33N 59°19' E 018°07'2 1.5
2016-Nov-30 07:33N 59°19' E 018°10'2 1.5
2016-Nov-30 06:33N 59°19' E 018°07'0 0.4
2016-Nov-30 05:33N 59°19' E 018°07'1 1.4
2016-Nov-30 04:31N 59°20' E 018°05'0 0.0
2016-Nov-30 03:31N 59°20' E 018°05'0 0.0
2016-Nov-30 02:31N 59°20' E 018°05'0 0.0
2016-Nov-30 01:31N 59°20' E 018°05'0 0.0
2016-Nov-30 00:28N 59°20' E 018°05'0 0.0
2016-Nov-29 23:31N 59°20' E 018°05'0 0.0
2016-Nov-29 22:31N 59°20' E 018°05'0 0.0
2016-Nov-29 21:28N 59°20' E 018°05'0 0.0
2016-Nov-29 20:28N 59°20' E 018°05'0 0.0
2016-Nov-29 19:31N 59°20' E 018°05'0 0.0
2016-Nov-29 18:31N 59°20' E 018°05'2 1.8
2016-Nov-29 17:33N 59°19' E 018°08'0 0.3
2016-Nov-29 16:33N 59°19' E 018°07'1 1.1
2016-Nov-29 15:33N 59°19' E 018°09'2 1.7
2016-Nov-29 14:34N 59°19' E 018°06'1 1.4
2016-Nov-29 13:33N 59°19' E 018°09'1 1.2
2016-Nov-29 12:33N 59°19' E 018°07'1 1.2
2016-Nov-29 11:33N 59°19' E 018°09'1 1.2
2016-Nov-29 10:33N 59°19' E 018°07'1 1.3
2016-Nov-29 09:33N 59°19' E 018°09'1 1.3
2016-Nov-29 08:33N 59°19' E 018°07'2 1.6
2016-Nov-29 07:31N 59°20' E 018°10'2 1.7
2016-Nov-29 06:33N 59°19' E 018°07'0 0.4
2016-Nov-29 05:33N 59°19' E 018°07'1 1.3
2016-Nov-29 04:32N 59°20' E 018°05'0 0.0
2016-Nov-29 03:32N 59°20' E 018°05'0 0.0
2016-Nov-29 02:32N 59°20' E 018°05'0 0.0
2016-Nov-29 01:32N 59°20' E 018°05'0 0.0
2016-Nov-29 00:32N 59°20' E 018°05'0 0.0
2016-Nov-28 23:32N 59°20' E 018°05'0 0.0
2016-Nov-28 22:32N 59°20' E 018°05'0 0.0
2016-Nov-28 21:32N 59°20' E 018°05'0 0.0
2016-Nov-28 20:32N 59°20' E 018°05'0 0.0
2016-Nov-28 19:32N 59°20' E 018°05'0 0.0
2016-Nov-28 18:32N 59°20' E 018°05'2 1.9
2016-Nov-28 17:33N 59°19' E 018°08'0 0.4
2016-Nov-28 16:33N 59°19' E 018°07'1 1.1
2016-Nov-28 15:33N 59°19' E 018°10'2 1.6
2016-Nov-28 14:33N 59°19' E 018°06'2 1.6
2016-Nov-28 13:33N 59°19' E 018°10'2 1.5
2016-Nov-28 12:33N 59°19' E 018°07'1 1.2
2016-Nov-28 11:33N 59°19' E 018°09'1 1.2
2016-Nov-28 10:33N 59°19' E 018°07'1 1.2
2016-Nov-28 09:33N 59°19' E 018°09'1 1.1
2016-Nov-28 08:33N 59°19' E 018°07'2 1.5
2016-Nov-28 07:32N 59°20' E 018°09'2 1.7
2016-Nov-28 06:33N 59°19' E 018°07'0 0.4
2016-Nov-28 05:33N 59°19' E 018°07'1 1.4
2016-Nov-28 04:32N 59°20' E 018°05'0 0.0
2016-Nov-28 03:32N 59°20' E 018°05'0 0.0
2016-Nov-28 02:29N 59°20' E 018°05'0 0.0
2016-Nov-28 01:32N 59°20' E 018°05'0 0.0
2016-Nov-28 00:32N 59°20' E 018°05'0 0.0
2016-Nov-27 23:32N 59°20' E 018°05'0 0.0
2016-Nov-27 22:32N 59°20' E 018°05'0 0.0
2016-Nov-27 21:32N 59°20' E 018°05'0 0.0
2016-Nov-27 20:32N 59°20' E 018°05'0 0.0
2016-Nov-27 19:32N 59°20' E 018°05'0 0.1
2016-Nov-27 18:32N 59°20' E 018°05'2 2.4
2016-Nov-27 17:33N 59°20' E 018°09'2 2.3
2016-Nov-27 16:32N 59°20' E 018°05'2 2.4
2016-Nov-27 15:32N 59°20' E 018°09'2 2.3
2016-Nov-27 14:31N 59°20' E 018°05'2 2.5
2016-Nov-27 13:33N 59°20' E 018°09'2 2.3
2016-Nov-27 12:33N 59°20' E 018°05'1 1.4
2016-Nov-27 11:33N 59°19' E 018°07'1 1.1
2016-Nov-27 10:33N 59°19' E 018°09'1 0.6
2016-Nov-27 09:33N 59°19' E 018°07'1 0.8
2016-Nov-27 08:33N 59°19' E 018°09'2 2.3
2016-Nov-27 07:33N 59°20' E 018°05'0 0.0
2016-Nov-27 06:33N 59°20' E 018°05'0 0.0
2016-Nov-27 05:33N 59°20' E 018°05'0 0.0
2016-Nov-27 04:33N 59°20' E 018°05'0 0.0
2016-Nov-27 03:33N 59°20' E 018°05'0 0.0
2016-Nov-27 02:33N 59°20' E 018°05'0 0.0
2016-Nov-27 01:33N 59°20' E 018°05'0 0.0
2016-Nov-27 00:33N 59°20' E 018°05'0 0.0
2016-Nov-26 23:33N 59°20' E 018°05'0 0.0
2016-Nov-26 22:33N 59°20' E 018°05'0 0.0
2016-Nov-26 21:33N 59°20' E 018°05'0 0.0
2016-Nov-26 20:33N 59°20' E 018°05'0 0.0
2016-Nov-26 19:33N 59°20' E 018°05'0 0.1
2016-Nov-26 18:33N 59°20' E 018°05'2 2.3
2016-Nov-26 17:33N 59°20' E 018°09'2 2.4
2016-Nov-26 16:32N 59°20' E 018°05'2 2.4
2016-Nov-26 15:33N 59°20' E 018°09'2 2.3
2016-Nov-26 14:32N 59°20' E 018°05'2 2.4
2016-Nov-26 13:33N 59°20' E 018°09'2 2.3
2016-Nov-26 12:33N 59°20' E 018°05'1 1.3
2016-Nov-26 11:33N 59°19' E 018°07'1 1.1
2016-Nov-26 10:33N 59°19' E 018°09'1 0.7
2016-Nov-26 09:33N 59°19' E 018°07'0 0.3
2016-Nov-26 08:33N 59°19' E 018°08'2 1.6
2016-Nov-26 07:31N 59°20' E 018°05'0 0.0
2016-Nov-26 06:31N 59°20' E 018°05'0 0.0
2016-Nov-26 05:31N 59°20' E 018°05'0 0.0
2016-Nov-26 04:31N 59°20' E 018°05'0 0.0
2016-Nov-26 03:31N 59°20' E 018°05'0 0.0
2016-Nov-26 02:31N 59°20' E 018°05'0 0.0
2016-Nov-26 01:31N 59°20' E 018°05'0 0.0
2016-Nov-26 00:31N 59°20' E 018°05'0 0.0
2016-Nov-25 23:31N 59°20' E 018°05'0 0.0
2016-Nov-25 22:28N 59°20' E 018°05'0 0.0
2016-Nov-25 21:31N 59°20' E 018°05'0 0.0
2016-Nov-25 20:31N 59°20' E 018°05'0 0.0
2016-Nov-25 19:31N 59°20' E 018°05'0 0.0
2016-Nov-25 18:31N 59°20' E 018°05'2 1.8
2016-Nov-25 17:32N 59°19' E 018°08'0 0.1
2016-Nov-25 16:33N 59°19' E 018°08'1 0.7
2016-Nov-25 15:33N 59°19' E 018°10'2 1.5
2016-Nov-25 14:34N 59°19' E 018°07'1 1.4
2016-Nov-25 13:33N 59°19' E 018°09'1 1.4
2016-Nov-25 12:33N 59°19' E 018°07'1 1.4
2016-Nov-25 11:33N 59°19' E 018°09'1 1.3
2016-Nov-25 10:33N 59°19' E 018°07'  
Track history (hours):
 
Tides and Currents Weather Stations Pressure Air Temp Water Temp Dewpoint Dewpoint Depression Visibility Wind Speed Wind Dir Waves Ship Positions

Gurli

Last reported at 2016-Dec-05 10:18 UTC. Time now 2016-Dec-06 10:11 UTC.
Position N 59°21' E 018°16'.

Length 21 m.

Type: Passenger vessel. MMSI: 265687640.

Date/timePositionNaut miles runAvg speedWind from/ knotsBaromVisibWave heightAir tempDewpointWater temp
2016-Dec-05 10:18N 59°21' E 018°16'4 5.3
2016-Dec-05 09:33N 59°19' E 018°09'1 1.2
2016-Dec-05 08:33N 59°19' E 018°07'1 1.3
2016-Dec-05 07:33N 59°19' E 018°09'0 0.4
2016-Dec-05 06:33N 59°19' E 018°09'0 0.2
2016-Dec-05 05:33N 59°19' E 018°08'2 1.8
2016-Dec-05 04:33N 59°20' E 018°05'0 0.0
2016-Dec-05 03:33N 59°20' E 018°05'0 0.0
2016-Dec-05 02:33N 59°20' E 018°05'0 0.0
2016-Dec-05 01:33N 59°20' E 018°05'0 0.0
2016-Dec-05 00:33N 59°20' E 018°05'0 0.0
2016-Dec-04 23:33N 59°20' E 018°05'0 0.0
2016-Dec-04 22:33N 59°20' E 018°05'0 0.0
2016-Dec-04 21:33N 59°20' E 018°05'0 0.0
2016-Dec-04 20:33N 59°20' E 018°05'0 0.0
2016-Dec-04 19:33N 59°20' E 018°05'0 0.2
2016-Dec-04 18:31N 59°20' E 018°05'2 2.4
2016-Dec-04 17:33N 59°20' E 018°09'2 2.4
2016-Dec-04 16:33N 59°20' E 018°05'2 2.4
2016-Dec-04 15:32N 59°20' E 018°09'2 2.4
2016-Dec-04 14:33N 59°20' E 018°05'2 2.4
2016-Dec-04 13:33N 59°20' E 018°09'2 2.3
2016-Dec-04 12:32N 59°20' E 018°05'1 1.5
2016-Dec-04 11:33N 59°19' E 018°07'1 1.2
2016-Dec-04 10:33N 59°19' E 018°09'1 1.2
2016-Dec-04 09:33N 59°19' E 018°07'1 0.9
2016-Dec-04 08:33N 59°19' E 018°08'2 1.9
2016-Dec-04 07:33N 59°20' E 018°05'0 0.0
2016-Dec-04 06:33N 59°20' E 018°05'0 0.0
2016-Dec-04 05:33N 59°20' E 018°05'0 0.0
2016-Dec-04 04:33N 59°20' E 018°05'0 0.0
2016-Dec-04 03:33N 59°20' E 018°05'0 0.0
2016-Dec-04 02:33N 59°20' E 018°05'0 0.0
2016-Dec-04 01:33N 59°20' E 018°05'0 0.0
2016-Dec-04 00:33N 59°20' E 018°05'0 0.0
2016-Dec-03 23:30N 59°20' E 018°05'0 0.0
2016-Dec-03 22:33N 59°20' E 018°05'0 0.0
2016-Dec-03 21:30N 59°20' E 018°05'0 0.0
2016-Dec-03 20:33N 59°20' E 018°05'0 0.0
2016-Dec-03 19:33N 59°20' E 018°05'0 0.2
2016-Dec-03 18:32N 59°20' E 018°05'2 2.4
2016-Dec-03 17:32N 59°20' E 018°09'2 2.4
2016-Dec-03 16:33N 59°20' E 018°05'2 2.4
2016-Dec-03 15:33N 59°20' E 018°09'2 2.4
2016-Dec-03 14:33N 59°20' E 018°05'2 2.4
2016-Dec-03 13:33N 59°20' E 018°09'2 2.4
2016-Dec-03 12:33N 59°20' E 018°05'1 1.4
2016-Dec-03 11:33N 59°19' E 018°07'1 1.2
2016-Dec-03 10:33N 59°19' E 018°09'1 1.2
2016-Dec-03 09:33N 59°19' E 018°07'1 1.3
2016-Dec-03 08:33N 59°19' E 018°09'2 2.2
2016-Dec-03 07:32N 59°20' E 018°05'0 0.0
2016-Dec-03 06:32N 59°20' E 018°05'0 0.0
2016-Dec-03 05:32N 59°20' E 018°05'0 0.0
2016-Dec-03 04:32N 59°20' E 018°05'0 0.0
2016-Dec-03 03:32N 59°20' E 018°05'0 0.0
2016-Dec-03 02:32N 59°20' E 018°05'0 0.0
2016-Dec-03 01:29N 59°20' E 018°05'0 0.0
2016-Dec-03 00:32N 59°20' E 018°05'0 0.0
2016-Dec-02 23:32N 59°20' E 018°05'0 0.0
2016-Dec-02 22:32N 59°20' E 018°05'0 0.0
2016-Dec-02 21:32N 59°20' E 018°05'0 0.0
2016-Dec-02 20:32N 59°20' E 018°05'0 0.0
2016-Dec-02 19:32N 59°20' E 018°05'0 0.0
2016-Dec-02 18:32N 59°20' E 018°05'2 1.9
2016-Dec-02 17:33N 59°19' E 018°08'0 0.3
2016-Dec-02 16:33N 59°19' E 018°07'1 1.1
2016-Dec-02 15:33N 59°19' E 018°10'2 1.6
2016-Dec-02 14:33N 59°19' E 018°06'1 1.4
2016-Dec-02 13:33N 59°19' E 018°09'1 1.3
2016-Dec-02 12:33N 59°19' E 018°07'1 1.3
2016-Dec-02 11:33N 59°19' E 018°09'1 1.3
2016-Dec-02 10:34N 59°19' E 018°07'1 1.2
2016-Dec-02 09:33N 59°19' E 018°09'1 1.2
2016-Dec-02 08:33N 59°19' E 018°07'2 1.6
2016-Dec-02 07:33N 59°20' E 018°10'2 1.5
2016-Dec-02 06:33N 59°19' E 018°07'0 0.2
2016-Dec-02 05:33N 59°19' E 018°07'1 1.2
2016-Dec-02 04:31N 59°20' E 018°05'0 0.0
2016-Dec-02 03:31N 59°20' E 018°05'0 0.0
2016-Dec-02 02:31N 59°20' E 018°05'0 0.0
2016-Dec-02 01:31N 59°20' E 018°05'0 0.0
2016-Dec-02 00:31N 59°20' E 018°05'0 0.0
2016-Dec-01 23:31N 59°20' E 018°05'0 0.0
2016-Dec-01 22:31N 59°20' E 018°05'0 0.0
2016-Dec-01 21:31N 59°20' E 018°05'0 0.0
2016-Dec-01 20:31N 59°20' E 018°05'0 0.0
2016-Dec-01 19:31N 59°20' E 018°05'0 0.0
2016-Dec-01 18:31N 59°20' E 018°05'2 1.7
2016-Dec-01 17:33N 59°19' E 018°08'0 0.1
2016-Dec-01 16:33N 59°19' E 018°08'1 1.0
2016-Dec-01 15:32N 59°19' E 018°10'2 1.6
2016-Dec-01 14:33N 59°19' E 018°07'1 1.3
2016-Dec-01 13:33N 59°19' E 018°09'1 1.2
2016-Dec-01 12:33N 59°19' E 018°07'1 1.4
2016-Dec-01 11:32N 59°19' E 018°09'1 1.5
2016-Dec-01 10:33N 59°19' E 018°07'1 1.3
2016-Dec-01 09:33N 59°19' E 018°09'1 1.3
2016-Dec-01 08:33N 59°19' E 018°07'2 1.6
2016-Dec-01 07:32N 59°19' E 018°10'2 1.6
2016-Dec-01 06:33N 59°19' E 018°07'0 0.2
2016-Dec-01 05:33N 59°19' E 018°07'1 1.2
2016-Dec-01 04:33N 59°20' E 018°05'0 0.0
2016-Dec-01 03:33N 59°20' E 018°05'0 0.0
2016-Dec-01 02:33N 59°20' E 018°05'0 0.0
2016-Dec-01 01:33N 59°20' E 018°05'0 0.0
2016-Dec-01 00:33N 59°20' E 018°05'0 0.0
2016-Nov-30 23:33N 59°20' E 018°05'0 0.0
2016-Nov-30 22:33N 59°20' E 018°05'0 0.0
2016-Nov-30 21:33N 59°20' E 018°05'0 0.0
2016-Nov-30 20:33N 59°20' E 018°05'0 0.0
2016-Nov-30 19:33N 59°20' E 018°05'0 0.0
2016-Nov-30 18:33N 59°20' E 018°05'2 1.9
2016-Nov-30 17:33N 59°19' E 018°08'0 0.4
2016-Nov-30 16:33N 59°19' E 018°07'1 1.1
2016-Nov-30 15:33N 59°19' E 018°10'2 1.6
2016-Nov-30 14:33N 59°19' E 018°07'1 1.3
2016-Nov-30 13:34N 59°19' E 018°09'1 1.3
2016-Nov-30 12:34N 59°19' E 018°07'1 1.3
2016-Nov-30 11:33N 59°19' E 018°09'1 1.3
2016-Nov-30 10:33N 59°19' E 018°07'1 1.4
2016-Nov-30 09:33N 59°19' E 018°09'1 1.4
2016-Nov-30 08:33N 59°19' E 018°07'2 1.5
2016-Nov-30 07:33N 59°19' E 018°10'2 1.5
2016-Nov-30 06:33N 59°19' E 018°07'0 0.4
2016-Nov-30 05:33N 59°19' E 018°07'1 1.4
2016-Nov-30 04:31N 59°20' E 018°05'0 0.0
2016-Nov-30 03:31N 59°20' E 018°05'0 0.0
2016-Nov-30 02:31N 59°20' E 018°05'0 0.0
2016-Nov-30 01:31N 59°20' E 018°05'0 0.0
2016-Nov-30 00:28N 59°20' E 018°05'0 0.0
2016-Nov-29 23:31N 59°20' E 018°05'0 0.0
2016-Nov-29 22:31N 59°20' E 018°05'0 0.0
2016-Nov-29 21:28N 59°20' E 018°05'0 0.0
2016-Nov-29 20:28N 59°20' E 018°05'0 0.0
2016-Nov-29 19:31N 59°20' E 018°05'0 0.0
2016-Nov-29 18:31N 59°20' E 018°05'2 1.8
2016-Nov-29 17:33N 59°19' E 018°08'0 0.3
2016-Nov-29 16:33N 59°19' E 018°07'1 1.1
2016-Nov-29 15:33N 59°19' E 018°09'2 1.7
2016-Nov-29 14:34N 59°19' E 018°06'1 1.4
2016-Nov-29 13:33N 59°19' E 018°09'1 1.2
2016-Nov-29 12:33N 59°19' E 018°07'1 1.2
2016-Nov-29 11:33N 59°19' E 018°09'1 1.2
2016-Nov-29 10:33N 59°19' E 018°07'1 1.3
2016-Nov-29 09:33N 59°19' E 018°09'1 1.3
2016-Nov-29 08:33N 59°19' E 018°07'2 1.6
2016-Nov-29 07:31N 59°20' E 018°10'2 1.7
2016-Nov-29 06:33N 59°19' E 018°07'0 0.4
2016-Nov-29 05:33N 59°19' E 018°07'1 1.3
2016-Nov-29 04:32N 59°20' E 018°05'0 0.0
2016-Nov-29 03:32N 59°20' E 018°05'0 0.0
2016-Nov-29 02:32N 59°20' E 018°05'0 0.0
2016-Nov-29 01:32N 59°20' E 018°05'0 0.0
2016-Nov-29 00:32N 59°20' E 018°05'0 0.0
2016-Nov-28 23:32N 59°20' E 018°05'0 0.0
2016-Nov-28 22:32N 59°20' E 018°05'0 0.0
2016-Nov-28 21:32N 59°20' E 018°05'0 0.0
2016-Nov-28 20:32N 59°20' E 018°05'0 0.0
2016-Nov-28 19:32N 59°20' E 018°05'0 0.0
2016-Nov-28 18:32N 59°20' E 018°05'2 1.9
2016-Nov-28 17:33N 59°19' E 018°08'0 0.4
2016-Nov-28 16:33N 59°19' E 018°07'1 1.1
2016-Nov-28 15:33N 59°19' E 018°10'2 1.6
2016-Nov-28 14:33N 59°19' E 018°06'2 1.6
2016-Nov-28 13:33N 59°19' E 018°10'2 1.5
2016-Nov-28 12:33N 59°19' E 018°07'1 1.2
2016-Nov-28 11:33N 59°19' E 018°09'1 1.2
2016-Nov-28 10:33N 59°19' E 018°07'1 1.2
2016-Nov-28 09:33N 59°19' E 018°09'1 1.1
2016-Nov-28 08:33N 59°19' E 018°07'2 1.5
2016-Nov-28 07:32N 59°20' E 018°09'2 1.7
2016-Nov-28 06:33N 59°19' E 018°07'0 0.4
2016-Nov-28 05:33N 59°19' E 018°07'1 1.4
2016-Nov-28 04:32N 59°20' E 018°05'0 0.0
2016-Nov-28 03:32N 59°20' E 018°05'0 0.0
2016-Nov-28 02:29N 59°20' E 018°05'0 0.0
2016-Nov-28 01:32N 59°20' E 018°05'0 0.0
2016-Nov-28 00:32N 59°20' E 018°05'0 0.0
2016-Nov-27 23:32N 59°20' E 018°05'0 0.0
2016-Nov-27 22:32N 59°20' E 018°05'0 0.0
2016-Nov-27 21:32N 59°20' E 018°05'0 0.0
2016-Nov-27 20:32N 59°20' E 018°05'0 0.0
2016-Nov-27 19:32N 59°20' E 018°05'0 0.1
2016-Nov-27 18:32N 59°20' E 018°05'2 2.4
2016-Nov-27 17:33N 59°20' E 018°09'2 2.3
2016-Nov-27 16:32N 59°20' E 018°05'2 2.4
2016-Nov-27 15:32N 59°20' E 018°09'2 2.3
2016-Nov-27 14:31N 59°20' E 018°05'2 2.5
2016-Nov-27 13:33N 59°20' E 018°09'2 2.3
2016-Nov-27 12:33N 59°20' E 018°05'1 1.4
2016-Nov-27 11:33N 59°19' E 018°07'1 1.1
2016-Nov-27 10:33N 59°19' E 018°09'1 0.6
2016-Nov-27 09:33N 59°19' E 018°07'1 0.8
2016-Nov-27 08:33N 59°19' E 018°09'2 2.3
2016-Nov-27 07:33N 59°20' E 018°05'0 0.0
2016-Nov-27 06:33N 59°20' E 018°05'0 0.0
2016-Nov-27 05:33N 59°20' E 018°05'0 0.0
2016-Nov-27 04:33N 59°20' E 018°05'0 0.0
2016-Nov-27 03:33N 59°20' E 018°05'0 0.0
2016-Nov-27 02:33N 59°20' E 018°05'0 0.0
2016-Nov-27 01:33N 59°20' E 018°05'0 0.0
2016-Nov-27 00:33N 59°20' E 018°05'0 0.0
2016-Nov-26 23:33N 59°20' E 018°05'0 0.0
2016-Nov-26 22:33N 59°20' E 018°05'0 0.0
2016-Nov-26 21:33N 59°20' E 018°05'0 0.0
2016-Nov-26 20:33N 59°20' E 018°05'0 0.0
2016-Nov-26 19:33N 59°20' E 018°05'0 0.1
2016-Nov-26 18:33N 59°20' E 018°05'2 2.3
2016-Nov-26 17:33N 59°20' E 018°09'2 2.4
2016-Nov-26 16:32N 59°20' E 018°05'2 2.4
2016-Nov-26 15:33N 59°20' E 018°09'2 2.3
2016-Nov-26 14:32N 59°20' E 018°05'2 2.4
2016-Nov-26 13:33N 59°20' E 018°09'2 2.3
2016-Nov-26 12:33N 59°20' E 018°05'1 1.3
2016-Nov-26 11:33N 59°19' E 018°07'1 1.1
2016-Nov-26 10:33N 59°19' E 018°09'1 0.7
2016-Nov-26 09:33N 59°19' E 018°07'0 0.3
2016-Nov-26 08:33N 59°19' E 018°08'2 1.6
2016-Nov-26 07:31N 59°20' E 018°05'0 0.0
2016-Nov-26 06:31N 59°20' E 018°05'0 0.0
2016-Nov-26 05:31N 59°20' E 018°05'0 0.0
2016-Nov-26 04:31N 59°20' E 018°05'0 0.0
2016-Nov-26 03:31N 59°20' E 018°05'0 0.0
2016-Nov-26 02:31N 59°20' E 018°05'0 0.0
2016-Nov-26 01:31N 59°20' E 018°05'0 0.0
2016-Nov-26 00:31N 59°20' E 018°05'0 0.0
2016-Nov-25 23:31N 59°20' E 018°05'0 0.0
2016-Nov-25 22:28N 59°20' E 018°05'0 0.0
2016-Nov-25 21:31N 59°20' E 018°05'0 0.0
2016-Nov-25 20:31N 59°20' E 018°05'0 0.0
2016-Nov-25 19:31N 59°20' E 018°05'0 0.0
2016-Nov-25 18:31N 59°20' E 018°05'2 1.8
2016-Nov-25 17:32N 59°19' E 018°08'0 0.1
2016-Nov-25 16:33N 59°19' E 018°08'1 0.7
2016-Nov-25 15:33N 59°19' E 018°10'2 1.5
2016-Nov-25 14:34N 59°19' E 018°07'1 1.4
2016-Nov-25 13:33N 59°19' E 018°09'1 1.4
2016-Nov-25 12:33N 59°19' E 018°07'1 1.4
2016-Nov-25 11:33N 59°19' E 018°09'1 1.3
2016-Nov-25 10:33N 59°19' E 018°07'  

Dump ship's entire track history